createdAt,value
2016-04-06T00:00:35.304Z,61.35
2016-04-06T00:01:35.307Z,61.25
2016-04-06T00:02:35.138Z,61.25
2016-04-06T00:03:35.296Z,61.73
2016-04-06T00:04:35.284Z,61.54
2016-04-06T00:05:35.286Z,61.54
2016-04-06T00:06:35.289Z,61.63
2016-04-06T00:07:35.307Z,61.54
2016-04-06T00:08:35.294Z,61.54
2016-04-06T00:09:35.297Z,61.8
2016-04-06T00:10:35.283Z,61.32
2016-04-06T00:11:35.286Z,61.89
2016-04-06T00:12:35.117Z,61.8
2016-04-06T00:13:35.307Z,61.7
2016-04-06T00:14:35.278Z,61.8
2016-04-06T00:15:35.266Z,61.51
2016-04-06T00:16:35.268Z,61.7
2016-04-06T00:17:35.255Z,61.7
2016-04-06T00:18:35.258Z,61.99
2016-04-06T00:19:35.277Z,61.6
2016-04-06T00:20:35.279Z,61.89
2016-04-06T00:21:35.250Z,61.89
2016-04-06T00:22:35.253Z,61.8
2016-04-06T00:23:35.256Z,61.8
2016-04-06T00:24:35.227Z,61.41
2016-04-06T00:25:35.246Z,61.8
2016-04-06T00:26:35.248Z,61.89
2016-04-06T00:27:35.235Z,61.8
2016-04-06T00:28:35.238Z,61.89
2016-04-06T00:29:35.241Z,61.8
2016-04-06T00:30:35.244Z,62.08
2016-04-06T00:31:35.216Z,61.8
2016-04-06T00:32:35.218Z,61.99
2016-04-06T00:33:35.221Z,62.18
2016-04-06T00:34:35.207Z,62.56
2016-04-06T00:35:35.210Z,62.65
2016-04-06T00:36:35.212Z,62.18
2016-04-06T00:37:35.200Z,62.27
2016-04-06T00:38:35.203Z,62.18
2016-04-06T00:39:35.190Z,62.15
2016-04-06T00:40:35.193Z,62.72
2016-04-06T00:41:35.195Z,62.72
2016-04-06T00:42:35.198Z,62.72
2016-04-06T00:43:35.184Z,62.43
2016-04-06T00:44:35.203Z,62.52
2016-04-06T00:45:35.190Z,62.34
2016-04-06T00:46:35.192Z,62.81
2016-04-06T00:47:35.181Z,62.81
2016-04-06T00:48:35.167Z,62.81
2016-04-06T00:49:35.170Z,62.72
2016-04-06T00:50:35.172Z,62.72
2016-04-06T00:51:35.160Z,62.81
2016-04-06T00:52:35.163Z,63
2016-04-06T00:53:35.165Z,63.39
2016-04-06T00:54:35.168Z,63.2
2016-04-06T00:55:35.154Z,63.2
2016-04-06T00:56:35.142Z,63.1
2016-04-06T00:57:35.144Z,63.57
2016-04-06T00:58:49.335Z,63.39
2016-04-06T00:59:35.916Z,63.39
2016-04-06T01:00:35.137Z,63.29
2016-04-06T01:01:35.124Z,63.48
2016-04-06T01:02:35.783Z,63.57
2016-04-06T01:03:35.129Z,63.57
2016-04-06T01:05:36.681Z,63.54
2016-04-06T01:06:35.918Z,63.64
2016-04-06T01:07:35.124Z,63.54
2016-04-06T01:08:35.846Z,63.54
2016-04-06T01:09:35.896Z,64.02
2016-04-06T01:10:35.757Z,64.31
2016-04-06T01:11:35.089Z,64.31
2016-04-06T01:12:35.778Z,63.92
2016-04-06T01:13:35.094Z,63.92
2016-04-06T01:14:36.472Z,63.83
2016-04-06T01:15:35.068Z,64.21
2016-04-06T01:16:35.087Z,64.4
2016-04-06T01:17:35.073Z,64.5
2016-04-06T01:18:35.076Z,64.59
2016-04-06T01:19:35.375Z,64.78
2016-04-06T01:20:35.066Z,64.69
2016-04-06T01:21:35.069Z,64.87
2016-04-06T01:22:35.055Z,64.97
2016-04-06T01:23:35.058Z,64.97
2016-04-06T01:24:35.044Z,65.55
2016-04-06T01:25:35.048Z,65.26
2016-04-06T01:26:35.035Z,65.45
2016-04-06T01:27:35.053Z,65.07
2016-04-06T01:28:35.056Z,65.45
2016-04-06T01:29:35.027Z,65.26
2016-04-06T01:30:35.030Z,65.55
2016-04-06T01:31:35.017Z,65.45
2016-04-06T01:32:35.020Z,65.55
2016-04-06T01:33:35.006Z,66.02
2016-04-06T01:34:35.009Z,66.08
2016-04-06T01:35:34.996Z,66.46
2016-04-06T01:36:34.999Z,66.37
2016-04-06T01:37:35.002Z,66.56
2016-04-06T01:38:35.005Z,66.08
2016-04-06T01:39:34.992Z,66.08
2016-04-06T01:40:34.995Z,66.75
2016-04-06T01:41:34.981Z,67.13
2016-04-06T01:42:34.984Z,66.85
2016-04-06T01:43:34.971Z,66.94
2016-04-06T01:44:34.974Z,66.85
2016-04-06T01:45:34.962Z,66.94
2016-04-06T01:46:34.964Z,67.22
2016-04-06T01:47:34.967Z,67.41
2016-04-06T01:48:34.969Z,67.41
2016-04-06T01:49:34.956Z,67.51
2016-04-06T01:50:34.943Z,67.7
2016-04-06T01:51:34.946Z,67.89
2016-04-06T01:52:34.949Z,67.61
2016-04-06T01:53:34.935Z,67.51
2016-04-06T01:54:34.923Z,67.61
2016-04-06T01:55:34.941Z,67.51
2016-04-06T01:56:34.913Z,67.99
2016-04-06T01:57:34.916Z,68.46
2016-04-06T01:58:34.933Z,68.27
2016-04-06T01:59:34.905Z,68.27
2016-04-06T02:00:34.907Z,68.75
2016-04-06T02:01:34.926Z,68.56
2016-04-06T02:02:34.896Z,68.84
2016-04-06T02:03:34.899Z,68.84
2016-04-06T02:04:34.902Z,69.04
2016-04-06T02:05:34.890Z,69.42
2016-04-06T02:06:34.893Z,69.42
2016-04-06T02:07:34.895Z,69.32
2016-04-06T02:08:34.874Z,69.23
2016-04-06T02:09:34.893Z,69.51
2016-04-06T02:10:34.865Z,69.23
2016-04-06T02:11:34.868Z,69.79
2016-04-06T02:12:34.870Z,69.67
2016-04-06T02:13:34.857Z,69.67
2016-04-06T02:14:34.844Z,70.43
2016-04-06T02:15:34.847Z,69.99
2016-04-06T02:16:34.835Z,69.89
2016-04-06T02:17:35.087Z,69.95
2016-04-06T02:18:34.840Z,70.24
2016-04-06T02:19:35.576Z,70.24
2016-04-06T02:20:34.814Z,70.18
2016-04-06T02:21:34.817Z,70.43
2016-04-06T02:22:35.523Z,70.52
2016-04-06T02:23:35.479Z,70.65
2016-04-06T02:24:35.153Z,70.56
2016-04-06T02:25:34.812Z,70.56
2016-04-06T02:26:35.142Z,70.56
2016-04-06T02:27:35.723Z,70.56
2016-04-06T02:28:35.803Z,70.47
2016-04-06T02:29:35.494Z,70.37
2016-04-06T02:30:34.809Z,71.13
2016-04-06T02:31:35.078Z,70.94
2016-04-06T02:33:35.193Z,70.75
2016-04-06T02:34:35.555Z,71.13
2016-04-06T02:35:35.308Z,70.56
2016-04-06T02:36:34.747Z,70.75
2016-04-06T02:37:35.219Z,70.94
2016-04-06T02:38:34.738Z,71.13
2016-04-06T02:39:34.755Z,71.13
2016-04-06T02:40:34.758Z,70.84
2016-04-06T02:41:34.746Z,71.03
2016-04-06T02:42:34.748Z,71.22
2016-04-06T02:43:34.735Z,71.51
2016-04-06T02:44:34.722Z,71.22
2016-04-06T02:45:34.725Z,71.51
2016-04-06T02:46:34.712Z,71.03
2016-04-06T02:47:34.715Z,71.61
2016-04-06T02:48:34.717Z,71.42
2016-04-06T02:49:34.704Z,71.42
2016-04-06T02:50:34.691Z,71.51
2016-04-06T02:51:34.694Z,71.22
2016-04-06T02:52:34.697Z,71.13
2016-04-06T02:53:34.684Z,71.22
2016-04-06T02:54:34.687Z,71.51
2016-04-06T02:55:34.689Z,71.22
2016-04-06T02:56:34.676Z,71.22
2016-04-06T02:57:34.664Z,71.22
2016-04-06T02:58:34.666Z,71.32
2016-04-06T02:59:34.669Z,71.13
2016-04-06T03:00:34.640Z,71.22
2016-04-06T03:01:34.659Z,71.32
2016-04-06T03:02:34.646Z,71.51
2016-04-06T03:03:34.648Z,71.22
2016-04-06T03:04:34.636Z,71.13
2016-04-06T03:05:34.639Z,71.42
2016-04-06T03:06:34.641Z,71.42
2016-04-06T03:07:34.644Z,71.61
2016-04-06T03:08:34.614Z,71.98
2016-04-06T03:09:34.617Z,71.8
2016-04-06T03:10:34.619Z,71.8
2016-04-06T03:11:34.607Z,72.08
2016-04-06T03:12:34.454Z,71.7
2016-04-06T03:13:34.628Z,71.89
2016-04-06T03:14:34.585Z,72.17
2016-04-06T03:15:34.587Z,71.89
2016-04-06T03:16:34.574Z,71.89
2016-04-06T03:17:34.592Z,71.61
2016-04-06T03:18:34.579Z,72.27
2016-04-06T03:19:34.582Z,72.27
2016-04-06T03:20:34.569Z,72.65
2016-04-06T03:21:34.572Z,72.17
2016-04-06T03:22:34.574Z,72.56
2016-04-06T03:23:34.562Z,72.37
2016-04-06T03:24:34.564Z,72.27
2016-04-06T03:25:34.567Z,72.37
2016-04-06T03:26:34.537Z,72.27
2016-04-06T03:27:34.556Z,72.27
2016-04-06T03:28:34.543Z,72.37
2016-04-06T03:29:34.530Z,72.37
2016-04-06T03:30:34.549Z,72.65
2016-04-06T03:31:34.536Z,73.13
2016-04-06T03:32:34.523Z,72.85
2016-04-06T03:33:34.526Z,73.13
2016-04-06T03:34:34.514Z,73.03
2016-04-06T03:35:34.500Z,72.94
2016-04-06T03:36:35.503Z,73.41
2016-04-06T03:37:34.958Z,73.22
2016-04-06T03:38:34.492Z,73.13
2016-04-06T03:39:34.479Z,73.13
2016-04-06T03:40:34.497Z,73.41
2016-04-06T03:41:34.500Z,73.03
2016-04-06T03:42:35.035Z,73.32
2016-04-06T03:43:34.459Z,73.13
2016-04-06T03:44:35.446Z,73.22
2016-04-06T03:45:34.449Z,73.41
2016-04-06T03:46:34.763Z,73.38
2016-04-06T03:47:34.985Z,73.28
2016-04-06T03:48:34.457Z,73.7
2016-04-06T03:49:34.647Z,73.61
2016-04-06T03:50:34.446Z,73.61
2016-04-06T03:51:35.215Z,73.41
2016-04-06T03:52:35.218Z,73.95
2016-04-06T03:53:34.439Z,73.57
2016-04-06T03:54:34.426Z,73.57
2016-04-06T03:55:35.226Z,74.14
2016-04-06T03:56:34.415Z,74.04
2016-04-06T03:57:34.403Z,73.76
2016-04-06T03:58:34.405Z,73.76
2016-04-06T03:59:34.393Z,73.76
2016-04-06T04:00:34.395Z,73.76
2016-04-06T04:01:34.382Z,73.85
2016-04-06T04:02:34.385Z,74.14
2016-04-06T04:03:34.372Z,74.04
2016-04-06T04:04:34.390Z,74.71
2016-04-06T04:05:34.377Z,74.71
2016-04-06T04:06:34.380Z,74.24
2016-04-06T04:07:34.398Z,74.24
2016-04-06T04:08:34.370Z,74.33
2016-04-06T04:09:34.358Z,74.62
2016-04-06T04:10:34.360Z,73.95
2016-04-06T04:11:34.347Z,74.33
2016-04-06T04:12:34.349Z,74.43
2016-04-06T04:13:34.336Z,74.71
2016-04-06T04:14:34.339Z,74.8
2016-04-06T04:15:34.327Z,74.62
2016-04-06T04:16:34.329Z,75.09
2016-04-06T04:17:34.316Z,75.19
2016-04-06T04:18:34.319Z,74.9
2016-04-06T04:19:34.321Z,74.8
2016-04-06T04:20:34.308Z,74.99
2016-04-06T04:21:34.311Z,75.05
2016-04-06T04:22:34.298Z,75.15
2016-04-06T04:23:34.285Z,74.87
2016-04-06T04:24:34.288Z,75.43
2016-04-06T04:25:34.275Z,75.81
2016-04-06T04:26:34.278Z,75.62
2016-04-06T04:27:34.281Z,75.72
2016-04-06T04:28:34.267Z,75.72
2016-04-06T04:29:34.271Z,75.53
2016-04-06T04:30:34.257Z,75.53
2016-04-06T04:31:34.245Z,75.81
2016-04-06T04:32:34.247Z,75.91
2016-04-06T04:33:34.250Z,75.62
2016-04-06T04:34:34.377Z,75.91
2016-04-06T04:35:34.239Z,75.81
2016-04-06T04:36:34.226Z,75.72
2016-04-06T04:37:34.228Z,75.91
2016-04-06T04:38:34.216Z,76.2
2016-04-06T04:39:34.203Z,76.01
2016-04-06T04:40:34.206Z,76.2
2016-04-06T04:41:34.208Z,76.29
2016-04-06T04:42:34.196Z,76.01
2016-04-06T04:43:34.199Z,76.39
2016-04-06T04:44:34.185Z,76.48
2016-04-06T04:45:34.204Z,76.48
2016-04-06T04:46:34.175Z,76.1
2016-04-06T04:47:34.177Z,76.1
2016-04-06T04:48:34.166Z,76.1
2016-04-06T04:49:34.293Z,76.2
2016-04-06T04:50:34.154Z,76.2
2016-04-06T04:51:34.173Z,76.2
2016-04-06T04:52:34.160Z,76.2
2016-04-06T04:53:34.146Z,76.01
2016-04-06T04:54:34.150Z,76.2
2016-04-06T04:55:34.137Z,76.29
2016-04-06T04:56:34.937Z,76.29
2016-04-06T04:57:34.143Z,76.57
2016-04-06T04:58:34.129Z,76.48
2016-04-06T04:59:34.132Z,76.1
2016-04-06T05:01:34.106Z,76.1
2016-04-06T05:02:35.640Z,76.39
2016-04-06T05:03:34.470Z,76.76
2016-04-06T05:04:35.051Z,76.48
2016-04-06T05:05:34.585Z,76.23
2016-04-06T05:06:34.339Z,76.33
2016-04-06T05:07:34.279Z,76.23
2016-04-06T05:08:34.078Z,76.61
2016-04-06T05:09:34.065Z,76.2
2016-04-06T05:10:34.350Z,76.9
2016-04-06T05:11:35.445Z,76.23
2016-04-06T05:12:35.652Z,76.23
2016-04-06T05:13:35.076Z,76.52
2016-04-06T05:14:34.266Z,76.33
2016-04-06T05:15:34.597Z,76.33
2016-04-06T05:16:34.037Z,76.42
2016-04-06T05:17:34.040Z,76.52
2016-04-06T05:18:34.027Z,76.33
2016-04-06T05:19:34.046Z,76.33
2016-04-06T05:20:34.079Z,76.33
2016-04-06T05:21:34.019Z,76.33
2016-04-06T05:22:34.007Z,76.04
2016-04-06T05:23:34.009Z,76.33
2016-04-06T05:24:34.012Z,76.23
2016-04-06T05:25:33.999Z,76.14
2016-04-06T05:26:33.985Z,76.04
2016-04-06T05:27:33.988Z,76.2
2016-04-06T05:28:33.987Z,76.2
2016-04-06T05:29:33.817Z,76.01
2016-04-06T05:30:33.960Z,76.2
2016-04-06T05:31:33.963Z,76.76
2016-04-06T05:32:33.951Z,76.76
2016-04-06T05:33:33.968Z,76.76
2016-04-06T05:34:33.940Z,76.86
2016-04-06T05:35:33.959Z,76.57
2016-04-06T05:36:33.946Z,76.67
2016-04-06T05:37:33.948Z,76.48
2016-04-06T05:38:33.950Z,76.48
2016-04-06T05:39:33.938Z,76.57
2016-04-06T05:40:33.940Z,76.48
2016-04-06T05:41:33.912Z,76.39
2016-04-06T05:42:33.915Z,76.86
2016-04-06T05:43:33.917Z,77.15
2016-04-06T05:44:33.905Z,76.86
2016-04-06T05:45:33.908Z,77.15
2016-04-06T05:46:33.894Z,77.24
2016-04-06T05:47:33.897Z,77.05
2016-04-06T05:48:33.883Z,77.34
2016-04-06T05:49:33.886Z,77.05
2016-04-06T05:50:33.874Z,77.15
2016-04-06T05:51:33.876Z,77.15
2016-04-06T05:52:33.879Z,77.09
2016-04-06T05:53:33.866Z,77.28
2016-04-06T05:54:33.869Z,77.19
2016-04-06T05:55:33.871Z,77.28
2016-04-06T05:56:33.858Z,76.27
2016-04-06T05:57:33.939Z,76.56
2016-04-06T05:58:34.427Z,76.21
2016-04-06T05:59:33.852Z,75.45
2016-04-06T06:00:33.837Z,75.11
2016-04-06T06:01:33.857Z,74.54
2016-04-06T06:02:33.843Z,73.91
2016-04-06T06:03:33.857Z,73.33
2016-04-06T06:04:33.890Z,73.37
2016-04-06T06:05:33.938Z,72.32
2016-04-06T06:06:33.970Z,72.07
2016-04-06T06:07:34.035Z,71.31
2016-04-06T06:08:34.043Z,70.2
2016-04-06T06:09:34.078Z,69.15
2016-04-06T06:10:34.081Z,68.41
2016-04-06T06:11:34.099Z,67.46
2016-04-06T06:12:34.104Z,67.02
2016-04-06T06:13:34.135Z,66.44
2016-04-06T06:15:34.152Z,64.85
2016-04-06T06:16:34.660Z,63.6
2016-04-06T06:17:34.731Z,63.26
2016-04-06T06:18:34.458Z,62.77
2016-04-06T06:20:34.154Z,61.57
2016-04-06T06:21:35.862Z,60.83
2016-04-06T06:22:34.664Z,59.8
2016-04-06T06:23:34.200Z,59.04
2016-04-06T06:24:34.689Z,59.23
2016-04-06T06:25:34.990Z,57.79
2016-04-06T06:26:34.196Z,57.15
2016-04-06T06:28:34.218Z,56.31
2016-04-06T06:29:35.456Z,55.55
2016-04-06T06:30:34.521Z,55.26
2016-04-06T06:31:34.493Z,54.78
2016-04-06T06:32:34.277Z,53.66
2016-04-06T06:33:34.233Z,53.27
2016-04-06T06:34:34.360Z,52.34
2016-04-06T06:35:34.613Z,51.57
2016-04-06T06:36:34.257Z,51.21
2016-04-06T06:37:34.276Z,51.02
2016-04-06T06:38:34.262Z,50.34
2016-04-06T06:39:34.249Z,49.99
2016-04-06T06:40:34.268Z,48.54
2016-04-06T06:41:34.271Z,48.16
2016-04-06T06:42:34.289Z,47.87
2016-04-06T06:43:34.292Z,47.68
2016-04-06T06:44:34.295Z,47.49
2016-04-06T06:45:34.298Z,46.64
2016-04-06T06:46:34.315Z,46.84
2016-04-06T06:47:34.317Z,46.84
2016-04-06T06:48:34.336Z,45.7
2016-04-06T06:49:34.339Z,45.42
2016-04-06T06:50:34.357Z,44.65
2016-04-06T06:51:34.359Z,44.35
2016-04-06T06:52:34.362Z,43.4
2016-04-06T06:53:34.381Z,42.63
2016-04-06T06:54:34.383Z,42.72
2016-04-06T06:55:34.386Z,41.95
2016-04-06T06:56:34.405Z,41.68
2016-04-06T06:57:34.423Z,41.2
2016-04-06T06:58:34.425Z,41.01
2016-04-06T06:59:34.443Z,41.3
2016-04-06T07:00:34.430Z,41.2
2016-04-06T07:01:34.466Z,40.72
2016-04-06T07:02:34.452Z,40.63
2016-04-06T07:03:34.455Z,40.26
2016-04-06T07:04:34.473Z,40.07
2016-04-06T07:05:34.491Z,39.78
2016-04-06T07:06:34.494Z,39.12
2016-04-06T07:07:34.496Z,39.61
2016-04-06T07:08:34.515Z,38.35
2016-04-06T07:09:34.533Z,38.06
2016-04-06T07:10:34.536Z,37.87
2016-04-06T07:11:34.554Z,37.96
2016-04-06T07:12:34.557Z,37.87
2016-04-06T07:13:34.575Z,37.58
2016-04-06T07:14:34.578Z,37.41
2016-04-06T07:15:34.611Z,36.44
2016-04-06T07:16:34.598Z,36.06
2016-04-06T07:17:34.633Z,36.04
2016-04-06T07:18:34.636Z,35.85
2016-04-06T07:19:34.638Z,35.94
2016-04-06T07:20:34.657Z,35.28
2016-04-06T07:21:34.659Z,34.69
2016-04-06T07:22:34.678Z,35.08
2016-04-06T07:23:34.696Z,35.17
2016-04-06T07:24:34.699Z,35.46
2016-04-06T07:25:34.717Z,35.08
2016-04-06T07:26:34.735Z,34.69
2016-04-06T07:27:34.738Z,34.98
2016-04-06T07:28:34.756Z,34.78
2016-04-06T07:29:34.774Z,34.61
2016-04-06T07:30:34.777Z,34.7
2016-04-06T07:31:34.811Z,34.34
2016-04-06T07:32:34.798Z,34.14
2016-04-06T07:33:35.317Z,33.95
2016-04-06T07:34:35.272Z,33.28
2016-04-06T07:35:35.635Z,33.37
2016-04-06T07:36:35.855Z,33.37
2016-04-06T07:37:35.312Z,32.79
2016-04-06T07:38:34.877Z,32.31
2016-04-06T07:39:36.286Z,32.7
2016-04-06T07:40:35.976Z,32.59
2016-04-06T07:41:35.260Z,32.68
2016-04-06T07:42:34.935Z,32.79
2016-04-06T07:43:34.953Z,32.79
2016-04-06T07:44:34.956Z,32.79
2016-04-06T07:45:35.974Z,32.21
2016-04-06T07:46:34.977Z,32.14
2016-04-06T07:47:35.010Z,31.94
2016-04-06T07:48:35.170Z,31.94
2016-04-06T07:50:35.081Z,31.38
2016-04-06T07:51:35.225Z,31.18
2016-04-06T07:52:35.070Z,31.38
2016-04-06T07:53:35.823Z,30.9
2016-04-06T07:54:35.108Z,30.41
2016-04-06T07:55:35.110Z,30.41
2016-04-06T07:56:35.128Z,29.93
2016-04-06T07:57:35.147Z,29.75
2016-04-06T07:58:35.165Z,29.85
2016-04-06T07:59:35.183Z,29.36
2016-04-06T08:00:35.186Z,29.36
2016-04-06T08:01:35.219Z,29.83
2016-04-06T08:02:35.223Z,30.12
2016-04-06T08:03:35.257Z,29.06
2016-04-06T08:04:35.259Z,29.24
2016-04-06T08:05:35.277Z,29.05
2016-04-06T08:06:35.280Z,29.91
2016-04-06T08:07:35.299Z,29.71
2016-04-06T08:08:35.317Z,29.72
2016-04-06T08:09:35.319Z,30
2016-04-06T08:10:35.338Z,29.52
2016-04-06T08:11:35.341Z,29.61
2016-04-06T08:12:35.577Z,29.61
2016-04-06T08:13:35.377Z,29.42
2016-04-06T08:14:35.380Z,28.94
2016-04-06T08:15:35.414Z,29.02
2016-04-06T08:16:35.417Z,29.29
2016-04-06T08:17:35.419Z,29.49
2016-04-06T08:18:35.437Z,29.95
2016-04-06T08:19:35.440Z,30.05
2016-04-06T08:20:35.458Z,30.13
2016-04-06T08:21:35.461Z,30.61
2016-04-06T08:22:35.495Z,30.52
2016-04-06T08:23:35.498Z,30.69
2016-04-06T08:24:35.517Z,30.79
2016-04-06T08:25:35.534Z,31.26
2016-04-06T08:26:35.537Z,31.64
2016-04-06T08:27:35.539Z,31.83
2016-04-06T08:28:35.559Z,32.41
2016-04-06T08:29:35.561Z,32.49
2016-04-06T08:30:35.580Z,32.97
2016-04-06T08:31:35.582Z,33.36
2016-04-06T08:32:35.600Z,33.62
2016-04-06T08:33:35.588Z,34.2
2016-04-06T08:34:35.606Z,34.39
2016-04-06T08:35:35.656Z,34.2
2016-04-06T08:36:35.627Z,34.39
2016-04-06T08:37:35.629Z,34.68
2016-04-06T08:38:35.632Z,34.88
2016-04-06T08:39:35.650Z,34.86
2016-04-06T08:40:35.638Z,35.14
2016-04-06T08:41:35.640Z,35.43
2016-04-06T08:42:35.643Z,35.72
2016-04-06T08:43:35.661Z,35.72
2016-04-06T08:44:35.664Z,35.53
2016-04-06T08:45:35.666Z,35.82
2016-04-06T08:46:35.669Z,36.4
2016-04-06T08:47:35.688Z,36.01
2016-04-06T08:48:35.690Z,35.72
2016-04-06T08:49:35.692Z,35.83
2016-04-06T08:50:35.727Z,35.72
2016-04-06T08:51:35.714Z,35.72
2016-04-06T08:52:36.310Z,35.82
2016-04-06T08:53:36.470Z,36.3
2016-04-06T08:54:35.722Z,36.49
2016-04-06T08:55:35.725Z,35.91
2016-04-06T08:56:36.368Z,35.63
2016-04-06T08:57:35.730Z,35.83
2016-04-06T08:58:36.811Z,35.55
2016-04-06T08:59:36.578Z,35.93
2016-04-06T09:00:35.754Z,35.74
2016-04-06T09:01:36.819Z,36.03
2016-04-06T09:03:36.293Z,35.36
2016-04-06T09:04:36.436Z,35.36
2016-04-06T09:05:35.908Z,34.97
2016-04-06T09:06:35.770Z,34.97
2016-04-06T09:07:35.788Z,35.16
2016-04-06T09:08:36.572Z,35.06
2016-04-06T09:09:35.934Z,35.64
2016-04-06T09:10:35.780Z,35.55
2016-04-06T09:11:35.799Z,35.64
2016-04-06T09:12:36.457Z,35.74
2016-04-06T09:13:35.805Z,35.82
2016-04-06T09:14:36.119Z,35.53
2016-04-06T09:15:35.809Z,36.01
2016-04-06T09:16:35.828Z,35.72
2016-04-06T09:17:35.831Z,36.2
2016-04-06T09:18:35.834Z,36.4
2016-04-06T09:19:35.820Z,36.4
2016-04-06T09:20:35.840Z,36.4
2016-04-06T09:21:35.842Z,36.4
2016-04-06T09:22:35.844Z,36.2
2016-04-06T09:23:35.832Z,36.3
2016-04-06T09:24:35.850Z,35.82
2016-04-06T09:25:35.837Z,35.82
2016-04-06T09:26:35.855Z,35.63
2016-04-06T09:27:35.858Z,36.01
2016-04-06T09:28:35.861Z,35.82
2016-04-06T09:29:35.863Z,36.01
2016-04-06T09:30:35.866Z,36.01
2016-04-06T09:31:35.884Z,35.63
2016-04-06T09:32:35.872Z,35.82
2016-04-06T09:33:35.874Z,35.63
2016-04-06T09:34:35.877Z,35.45
2016-04-06T09:35:35.942Z,35.36
2016-04-06T09:36:35.882Z,35.64
2016-04-06T09:37:35.900Z,35.64
2016-04-06T09:38:35.888Z,35.38
2016-04-06T09:39:35.905Z,34.8
2016-04-06T09:40:35.908Z,34.7
2016-04-06T09:41:35.911Z,34.31
2016-04-06T09:42:35.918Z,34.43
2016-04-06T09:43:35.921Z,33.66
2016-04-06T09:44:35.924Z,33.08
2016-04-06T09:45:35.919Z,32.41
2016-04-06T09:46:36.000Z,32.12
2016-04-06T09:47:35.941Z,31.93
2016-04-06T09:48:35.927Z,31.93
2016-04-06T09:49:35.947Z,31.54
2016-04-06T09:50:35.933Z,31.64
2016-04-06T09:51:35.952Z,31.93
2016-04-06T09:52:35.938Z,31.26
2016-04-06T09:53:35.972Z,31.45
2016-04-06T09:54:35.944Z,31.06
2016-04-06T09:55:35.962Z,31.06
2016-04-06T09:56:35.965Z,31.16
2016-04-06T09:57:35.968Z,31.45
2016-04-06T09:58:35.985Z,31.16
2016-04-06T09:59:35.988Z,31.35
2016-04-06T10:00:35.990Z,31.35
2016-04-06T10:01:35.994Z,31.45
2016-04-06T10:02:35.996Z,31.16
2016-04-06T10:03:36.015Z,31.26
2016-04-06T10:04:36.018Z,31.26
2016-04-06T10:05:36.020Z,31.16
2016-04-06T10:06:36.023Z,31.43
2016-04-06T10:07:36.026Z,31.92
2016-04-06T10:08:36.028Z,31.62
2016-04-06T10:09:36.031Z,32.01
2016-04-06T10:10:36.018Z,32.18
2016-04-06T10:11:36.786Z,32.28
2016-04-06T10:12:36.336Z,32.47
2016-04-06T10:13:36.433Z,32.93
2016-04-06T10:14:36.060Z,32.75
2016-04-06T10:15:36.063Z,32.65
2016-04-06T10:16:36.066Z,32.93
2016-04-06T10:17:38.006Z,32.93
2016-04-06T10:18:37.555Z,33.03
2016-04-06T10:19:36.605Z,33.13
2016-04-06T10:20:37.217Z,33.13
2016-04-06T10:21:36.094Z,33.15
2016-04-06T10:22:36.535Z,33.34
2016-04-06T10:23:36.288Z,33.05
2016-04-06T10:24:36.384Z,33.05
2016-04-06T10:25:36.137Z,33.05
2016-04-06T10:26:37.608Z,33.34
2016-04-06T10:27:36.096Z,33.05
2016-04-06T10:28:36.676Z,33.07
2016-04-06T10:29:36.490Z,33.15
2016-04-06T10:30:36.104Z,33.34
2016-04-06T10:31:36.543Z,33.34
2016-04-06T10:32:36.109Z,33.15
2016-04-06T10:33:36.111Z,33.15
2016-04-06T10:34:36.130Z,33.05
2016-04-06T10:35:36.132Z,33.72
2016-04-06T10:36:36.150Z,33.24
2016-04-06T10:37:36.137Z,33.32
2016-04-06T10:38:36.140Z,33.15
2016-04-06T10:39:36.143Z,33.24
2016-04-06T10:40:36.130Z,33.32
2016-04-06T10:41:36.133Z,32.86
2016-04-06T10:42:36.151Z,32.86
2016-04-06T10:43:36.153Z,32.67
2016-04-06T10:44:36.141Z,32.76
2016-04-06T10:45:36.144Z,32.47
2016-04-06T10:46:36.178Z,32.67
2016-04-06T10:47:36.150Z,32.57
2016-04-06T10:48:36.167Z,32.76
2016-04-06T10:49:36.169Z,32.47
2016-04-06T10:50:36.172Z,32.57
2016-04-06T10:51:36.175Z,32.18
2016-04-06T10:52:36.194Z,31.92
2016-04-06T10:53:36.180Z,31.34
2016-04-06T10:54:36.183Z,30.95
2016-04-06T10:55:36.046Z,30.95
2016-04-06T10:56:36.188Z,30.76
2016-04-06T10:57:36.191Z,30.66
2016-04-06T10:58:36.210Z,30.65
2016-04-06T10:59:36.196Z,30.65
2016-04-06T11:00:36.199Z,30.65
2016-04-06T11:01:36.201Z,31.23
2016-04-06T11:02:36.221Z,31.13
2016-04-06T11:03:36.207Z,30.55
2016-04-06T11:04:36.225Z,31.13
2016-04-06T11:05:36.228Z,31.03
2016-04-06T11:06:36.248Z,30.65
2016-04-06T11:07:36.234Z,30.65
2016-04-06T11:08:36.236Z,30.74
2016-04-06T11:09:36.240Z,30.55
2016-04-06T11:10:36.258Z,30.93
2016-04-06T11:11:36.244Z,30.65
2016-04-06T11:12:36.248Z,30.55
2016-04-06T11:13:36.251Z,30.17
2016-04-06T11:14:36.253Z,29.79
2016-04-06T11:15:36.271Z,29.97
2016-04-06T11:16:36.274Z,30.08
2016-04-06T11:17:36.292Z,29.8
2016-04-06T11:18:36.263Z,29.61
2016-04-06T11:19:36.282Z,29.41
2016-04-06T11:20:36.269Z,29.52
2016-04-06T11:21:36.288Z,29.04
2016-04-06T11:22:36.274Z,28.85
2016-04-06T11:23:36.293Z,29.04
2016-04-06T11:24:36.280Z,28.75
2016-04-06T11:25:36.282Z,28.38
2016-04-06T11:26:36.301Z,28.38
2016-04-06T11:27:36.304Z,27.91
2016-04-06T11:28:36.321Z,27.91
2016-04-06T11:29:36.309Z,27.23
2016-04-06T11:31:36.329Z,26.65
2016-04-06T11:32:36.332Z,26.56
2016-04-06T11:33:37.195Z,26.64
2016-04-06T11:34:36.338Z,26.54
2016-04-06T11:36:36.359Z,26.54
2016-04-06T11:37:37.752Z,26.93
2016-04-06T11:38:36.973Z,27.12
2016-04-06T11:39:50.539Z,27.4
2016-04-06T11:41:36.795Z,27.13
2016-04-06T11:42:37.219Z,26.36
2016-04-06T11:43:36.378Z,26.94
2016-04-06T11:44:36.380Z,26.84
2016-04-06T11:45:38.336Z,26.46
2016-04-06T11:46:36.761Z,26.75
2016-04-06T11:47:37.139Z,27.42
2016-04-06T11:48:36.906Z,27.23
2016-04-06T11:49:36.409Z,27.6
2016-04-06T11:50:36.850Z,28.08
2016-04-06T11:51:36.414Z,28.37
2016-04-06T11:52:36.433Z,29.04
2016-04-06T11:53:36.404Z,29.13
2016-04-06T11:54:36.422Z,29.32
2016-04-06T11:55:36.441Z,29.7
2016-04-06T11:56:36.428Z,29.9
2016-04-06T11:57:36.431Z,29.99
2016-04-06T11:58:36.449Z,30.55
2016-04-06T11:59:36.468Z,30.65
2016-04-06T12:00:36.438Z,30.74
2016-04-06T12:01:36.457Z,31.23
2016-04-06T12:02:36.444Z,31.61
2016-04-06T12:03:36.479Z,31.88
2016-04-06T12:04:36.465Z,32.26
2016-04-06T12:05:36.468Z,32.46
2016-04-06T12:06:36.470Z,32.26
2016-04-06T12:07:36.481Z,32.65
2016-04-06T12:08:36.483Z,32.75
2016-04-06T12:09:36.485Z,32.67
2016-04-06T12:10:36.488Z,32.55
2016-04-06T12:11:36.491Z,32.18
2016-04-06T12:12:36.510Z,32.07
2016-04-06T12:13:36.496Z,31.88
2016-04-06T12:14:36.499Z,31.98
2016-04-06T12:15:36.502Z,32.17
2016-04-06T12:16:36.504Z,31.98
2016-04-06T12:17:36.509Z,32.17
2016-04-06T12:18:36.512Z,32.17
2016-04-06T12:19:36.531Z,32.26
2016-04-06T12:20:36.517Z,32.46
2016-04-06T12:21:36.520Z,33.61
2016-04-06T12:22:36.522Z,34.47
2016-04-06T12:23:36.525Z,35.72
2016-04-06T12:24:36.544Z,36.3
2016-04-06T12:25:36.547Z,36.78
2016-04-06T12:26:36.549Z,37.45
2016-04-06T12:27:36.536Z,37.16
2016-04-06T12:28:36.554Z,37.26
2016-04-06T12:29:36.541Z,37.55
2016-04-06T12:30:36.544Z,37.64
2016-04-06T12:31:36.563Z,37.64
2016-04-06T12:32:36.549Z,37.45
2016-04-06T12:33:36.569Z,37.35
2016-04-06T12:34:36.571Z,37.35
2016-04-06T12:35:36.573Z,37.26
2016-04-06T12:36:36.576Z,37.16
2016-04-06T12:37:36.579Z,37.34
2016-04-06T12:38:36.565Z,36.95
2016-04-06T12:39:36.585Z,36.76
2016-04-06T12:40:36.587Z,36.28
2016-04-06T12:41:36.590Z,36.26
2016-04-06T12:42:36.576Z,36.07
2016-04-06T12:43:36.595Z,35.69
2016-04-06T12:44:36.582Z,36.46
2016-04-06T12:45:36.616Z,36.26
2016-04-06T12:46:36.587Z,36.44
2016-04-06T12:47:36.589Z,36.72
2016-04-06T12:48:36.593Z,36.63
2016-04-06T12:49:37.001Z,37.01
2016-04-06T12:50:37.300Z,36.63
2016-04-06T12:51:37.412Z,36.72
2016-04-06T12:52:36.604Z,36.72
2016-04-06T12:53:36.965Z,36.99
2016-04-06T12:55:37.924Z,37.09
2016-04-06T12:56:37.050Z,37.18
2016-04-06T12:57:36.617Z,37.09
2016-04-06T12:58:36.619Z,37.18
2016-04-06T12:59:36.622Z,36.99
2016-04-06T13:00:37.328Z,37.38
2016-04-06T13:01:37.440Z,37.3
2016-04-06T13:02:36.864Z,37.76
2016-04-06T13:03:36.616Z,37.09
2016-04-06T13:04:37.730Z,37.2
2016-04-06T13:05:38.013Z,37.28
2016-04-06T13:06:36.641Z,36.99
2016-04-06T13:07:37.737Z,36.91